createdAt,value
2023-04-12T00:00:18.855Z,606.00
2023-04-12T00:01:18.855Z,604.00
2023-04-12T00:02:18.974Z,602.00
2023-04-12T00:03:19.005Z,604.00
2023-04-12T00:04:19.016Z,603.00
2023-04-12T00:05:18.992Z,601.00
2023-04-12T00:06:18.917Z,601.00
2023-04-12T00:07:18.956Z,602.00
2023-04-12T00:08:19.006Z,604.00
2023-04-12T00:09:19.038Z,604.00
2023-04-12T00:10:19.083Z,602.00
2023-04-12T00:11:19.101Z,602.00
2023-04-12T00:12:19.142Z,601.00
2023-04-12T00:13:19.193Z,600.00
2023-04-12T00:14:19.181Z,599.00
2023-04-12T00:15:19.199Z,599.00
2023-04-12T00:16:19.296Z,599.00
2023-04-12T00:17:19.408Z,597.00
2023-04-12T00:18:19.295Z,595.00
2023-04-12T00:19:19.629Z,594.00
2023-04-12T00:20:19.367Z,593.00
2023-04-12T00:21:19.471Z,593.00
2023-04-12T00:22:19.457Z,591.00
2023-04-12T00:23:19.502Z,590.00
2023-04-12T00:24:19.525Z,586.00
2023-04-12T00:25:19.538Z,588.00
2023-04-12T00:26:19.559Z,592.00
2023-04-12T00:27:19.602Z,594.00
2023-04-12T00:28:19.643Z,592.00
2023-04-12T00:29:19.840Z,590.00
2023-04-12T00:30:19.726Z,590.00
2023-04-12T00:31:19.841Z,588.00
2023-04-12T00:32:19.788Z,588.00
2023-04-12T00:33:19.772Z,588.00
2023-04-12T00:34:19.796Z,589.00
2023-04-12T00:35:19.847Z,589.00
2023-04-12T00:36:20.025Z,588.00
2023-04-12T00:37:20.019Z,585.00
2023-04-12T00:38:20.050Z,588.00
2023-04-12T00:39:20.036Z,589.00
2023-04-12T00:40:20.043Z,591.00
2023-04-12T00:41:20.095Z,592.00
2023-04-12T00:42:20.119Z,593.00
2023-04-12T00:43:20.166Z,589.00
2023-04-12T00:44:20.204Z,587.00
2023-04-12T00:45:20.345Z,589.00
2023-04-12T00:46:20.375Z,587.00
2023-04-12T00:47:20.425Z,587.00
2023-04-12T00:48:20.344Z,587.00
2023-04-12T00:49:20.382Z,590.00
2023-04-12T00:50:20.423Z,592.00
2023-04-12T00:51:20.464Z,591.00
2023-04-12T00:52:20.520Z,591.00
2023-04-12T00:53:20.554Z,587.00
2023-04-12T00:54:20.576Z,591.00
2023-04-12T00:55:20.602Z,593.00
2023-04-12T00:56:20.621Z,595.00
2023-04-12T00:57:20.641Z,593.00
2023-04-12T00:58:20.654Z,592.00
2023-04-12T00:59:20.672Z,595.00
2023-04-12T01:00:20.725Z,593.00
2023-04-12T01:01:20.797Z,591.00
2023-04-12T01:02:20.859Z,593.00
2023-04-12T01:03:20.868Z,593.00
2023-04-12T01:04:20.825Z,595.00
2023-04-12T01:05:20.865Z,592.00
2023-04-12T01:06:20.900Z,591.00
2023-04-12T01:07:20.952Z,591.00
2023-04-12T01:08:20.986Z,591.00
2023-04-12T01:09:21.059Z,593.00
2023-04-12T01:10:21.059Z,593.00
2023-04-12T01:11:21.095Z,591.00
2023-04-12T01:12:21.137Z,590.00
2023-04-12T01:13:21.181Z,589.00
2023-04-12T01:14:21.222Z,592.00
2023-04-12T01:15:21.284Z,590.00
2023-04-12T01:16:21.356Z,589.00
2023-04-12T01:17:21.411Z,589.00
2023-04-12T01:18:21.393Z,586.00
2023-04-12T01:19:21.449Z,585.00
2023-04-12T01:20:21.460Z,587.00
2023-04-12T01:21:21.484Z,583.00
2023-04-12T01:22:21.496Z,582.00
2023-04-12T01:23:21.514Z,583.00
2023-04-12T01:24:21.529Z,584.00
2023-04-12T01:25:21.560Z,586.00
2023-04-12T01:26:21.705Z,587.00
2023-04-12T01:27:21.644Z,587.00
2023-04-12T01:28:21.693Z,586.00
2023-04-12T01:29:21.747Z,585.00
2023-04-12T01:30:21.790Z,587.00
2023-04-12T01:31:21.849Z,587.00
2023-04-12T01:32:21.889Z,587.00
2023-04-12T01:33:21.935Z,588.00
2023-04-12T01:34:21.962Z,587.00
2023-04-12T01:35:22.024Z,585.00
2023-04-12T01:36:22.043Z,585.00
2023-04-12T01:37:22.058Z,585.00
2023-04-12T01:38:22.112Z,583.00
2023-04-12T01:39:22.143Z,584.00
2023-04-12T01:40:22.186Z,583.00
2023-04-12T01:41:22.240Z,584.00
2023-04-12T01:42:22.281Z,583.00
2023-04-12T01:43:22.323Z,583.00
2023-04-12T01:44:22.389Z,584.00
2023-04-12T01:45:22.458Z,582.00
2023-04-12T01:46:22.440Z,581.00
2023-04-12T01:47:22.590Z,579.00
2023-04-12T01:48:22.488Z,581.00
2023-04-12T01:49:22.551Z,584.00
2023-04-12T01:50:22.615Z,584.00
2023-04-12T01:51:22.634Z,586.00
2023-04-12T01:52:22.669Z,586.00
2023-04-12T01:53:22.716Z,589.00
2023-04-12T01:54:22.762Z,588.00
2023-04-12T01:55:22.815Z,586.00
2023-04-12T01:56:22.799Z,587.00
2023-04-12T01:57:22.824Z,587.00
2023-04-12T01:58:22.850Z,586.00
2023-04-12T01:59:22.889Z,590.00
2023-04-12T02:00:22.923Z,588.00
2023-04-12T02:01:22.987Z,585.00
2023-04-12T02:02:23.138Z,584.00
2023-04-12T02:03:23.353Z,581.00
2023-04-12T02:04:23.074Z,581.00
2023-04-12T02:05:23.149Z,580.00
2023-04-12T02:06:23.135Z,581.00
2023-04-12T02:07:23.168Z,584.00
2023-04-12T02:08:23.215Z,585.00
2023-04-12T02:09:23.256Z,584.00
2023-04-12T02:10:23.299Z,583.00
2023-04-12T02:11:23.340Z,583.00
2023-04-12T02:12:23.390Z,579.00
2023-04-12T02:13:23.435Z,577.00
2023-04-12T02:14:23.481Z,578.00
2023-04-12T02:15:23.509Z,579.00
2023-04-12T02:16:23.596Z,578.00
2023-04-12T02:17:23.577Z,577.00
2023-04-12T02:18:23.619Z,578.00
2023-04-12T02:19:23.667Z,579.00
2023-04-12T02:20:23.712Z,580.00
2023-04-12T02:21:23.777Z,581.00
2023-04-12T02:22:23.804Z,578.00
2023-04-12T02:23:23.829Z,574.00
2023-04-12T02:24:23.833Z,572.00
2023-04-12T02:25:23.857Z,573.00
2023-04-12T02:26:23.879Z,573.00
2023-04-12T02:27:23.894Z,574.00
2023-04-12T02:28:23.949Z,574.00
2023-04-12T02:29:23.995Z,573.00
2023-04-12T02:30:24.050Z,574.00
2023-04-12T02:31:24.109Z,575.00
2023-04-12T02:32:24.143Z,576.00
2023-04-12T02:33:24.149Z,575.00
2023-04-12T02:34:24.247Z,574.00
2023-04-12T02:35:24.293Z,573.00
2023-04-12T02:36:24.283Z,572.00
2023-04-12T02:37:24.353Z,573.00
2023-04-12T02:38:24.335Z,572.00
2023-04-12T02:39:24.385Z,570.00
2023-04-12T02:40:24.435Z,569.00
2023-04-12T02:41:24.488Z,569.00
2023-04-12T02:42:24.538Z,569.00
2023-04-12T02:43:24.575Z,572.00
2023-04-12T02:44:24.645Z,570.00
2023-04-12T02:45:24.653Z,571.00
2023-04-12T02:46:24.742Z,569.00
2023-04-12T02:47:24.752Z,567.00
2023-04-12T02:48:24.732Z,567.00
2023-04-12T02:49:24.800Z,567.00
2023-04-12T02:50:24.824Z,566.00
2023-04-12T02:51:24.927Z,567.00
2023-04-12T02:52:24.932Z,568.00
2023-04-12T02:53:25.008Z,567.00
2023-04-12T02:54:24.996Z,569.00
2023-04-12T02:55:25.020Z,570.00
2023-04-12T02:56:25.059Z,571.00
2023-04-12T02:57:25.108Z,570.00
2023-04-12T02:58:25.152Z,569.00
2023-04-12T02:59:25.210Z,569.00
2023-04-12T03:00:25.239Z,570.00
2023-04-12T03:01:25.311Z,573.00
2023-04-12T03:02:25.392Z,573.00
2023-04-12T03:03:25.440Z,576.00
2023-04-12T03:04:25.431Z,574.00
2023-04-12T03:05:25.372Z,571.00
2023-04-12T03:06:25.390Z,571.00
2023-04-12T03:07:25.417Z,568.00
2023-04-12T03:08:25.427Z,568.00
2023-04-12T03:09:25.467Z,566.00
2023-04-12T03:10:25.463Z,564.00
2023-04-12T03:11:25.499Z,564.00
2023-04-12T03:12:25.557Z,563.00
2023-04-12T03:13:25.587Z,565.00
2023-04-12T03:14:25.627Z,566.00
2023-04-12T03:15:25.746Z,565.00
2023-04-12T03:16:25.654Z,567.00
2023-04-12T03:17:25.712Z,568.00
2023-04-12T03:18:25.726Z,567.00
2023-04-12T03:19:25.776Z,565.00
2023-04-12T03:20:25.811Z,567.00
2023-04-12T03:21:25.833Z,570.00
2023-04-12T03:22:25.879Z,569.00
2023-04-12T03:23:25.905Z,570.00
2023-04-12T03:24:25.928Z,570.00
2023-04-12T03:25:25.999Z,571.00
2023-04-12T03:26:25.984Z,569.00
2023-04-12T03:27:26.005Z,567.00
2023-04-12T03:28:26.035Z,566.00
2023-04-12T03:29:26.060Z,567.00
2023-04-12T03:30:26.087Z,567.00
2023-04-12T03:31:26.167Z,566.00
2023-04-12T03:32:26.183Z,564.00
2023-04-12T03:33:26.202Z,563.00
2023-04-12T03:34:26.258Z,563.00
2023-04-12T03:35:26.314Z,566.00
2023-04-12T03:36:26.357Z,566.00
2023-04-12T03:37:26.443Z,570.00
2023-04-12T03:38:26.452Z,568.00
2023-04-12T03:39:26.470Z,570.00
2023-04-12T03:40:26.497Z,568.00
2023-04-12T03:41:26.610Z,572.00
2023-04-12T03:42:33.109Z,567.00
2023-04-12T03:43:26.590Z,566.00
2023-04-12T03:44:26.576Z,563.00
2023-04-12T03:45:26.581Z,564.00
2023-04-12T03:46:26.597Z,563.00
2023-04-12T03:47:26.612Z,564.00
2023-04-12T03:48:26.548Z,563.00
2023-04-12T03:49:26.543Z,565.00
2023-04-12T03:50:26.539Z,567.00
2023-04-12T03:51:26.544Z,568.00
2023-04-12T03:52:26.531Z,564.00
2023-04-12T03:53:26.513Z,564.00
2023-04-12T03:54:26.513Z,562.00
2023-04-12T03:55:26.540Z,563.00
2023-04-12T03:56:26.502Z,564.00
2023-04-12T03:57:26.541Z,566.00
2023-04-12T03:58:26.485Z,567.00
2023-04-12T03:59:26.485Z,565.00
2023-04-12T04:00:26.471Z,567.00
2023-04-12T04:01:26.460Z,570.00
2023-04-12T04:02:26.664Z,569.00
2023-04-12T04:03:26.529Z,570.00
2023-04-12T04:04:26.584Z,567.00
2023-04-12T04:05:26.442Z,565.00
2023-04-12T04:06:26.441Z,567.00
2023-04-12T04:07:26.474Z,564.00
2023-04-12T04:08:26.425Z,559.00
2023-04-12T04:09:26.422Z,557.00
2023-04-12T04:10:26.421Z,558.00
2023-04-12T04:11:26.408Z,555.00
2023-04-12T04:12:26.402Z,561.00
2023-04-12T04:13:26.418Z,561.00
2023-04-12T04:14:26.983Z,564.00
2023-04-12T04:15:26.461Z,564.00
2023-04-12T04:16:26.514Z,563.00
2023-04-12T04:17:26.573Z,564.00
2023-04-12T04:18:26.594Z,562.00
2023-04-12T04:19:26.646Z,561.00
2023-04-12T04:20:27.838Z,559.00
2023-04-12T04:21:26.719Z,559.00
2023-04-12T04:22:26.735Z,560.00
2023-04-12T04:23:26.758Z,560.00
2023-04-12T04:24:26.781Z,557.00
2023-04-12T04:25:26.817Z,558.00
2023-04-12T04:26:26.832Z,559.00
2023-04-12T04:27:26.849Z,559.00
2023-04-12T04:28:26.881Z,564.00
2023-04-12T04:29:26.925Z,567.00
2023-04-12T04:30:26.916Z,563.00
2023-04-12T04:31:27.051Z,560.00
2023-04-12T04:32:27.028Z,560.00
2023-04-12T04:33:26.987Z,560.00
2023-04-12T04:34:27.000Z,561.00
2023-04-12T04:35:27.035Z,561.00
2023-04-12T04:36:27.056Z,560.00
2023-04-12T04:37:27.082Z,561.00
2023-04-12T04:38:27.106Z,561.00
2023-04-12T04:39:27.194Z,558.00
2023-04-12T04:40:27.183Z,558.00
2023-04-12T04:41:27.224Z,559.00
2023-04-12T04:42:27.275Z,560.00
2023-04-12T04:43:27.306Z,559.00
2023-04-12T04:44:27.350Z,561.00
2023-04-12T04:45:27.424Z,560.00
2023-04-12T04:46:27.441Z,562.00
2023-04-12T04:47:27.494Z,563.00
2023-04-12T04:48:27.523Z,562.00
2023-04-12T04:49:27.568Z,563.00
2023-04-12T04:50:27.610Z,561.00
2023-04-12T04:51:27.662Z,559.00
2023-04-12T04:52:27.727Z,557.00
2023-04-12T04:53:27.771Z,556.00
2023-04-12T04:54:27.831Z,557.00
2023-04-12T04:55:27.900Z,555.00
2023-04-12T04:56:27.933Z,554.00
2023-04-12T04:57:27.986Z,553.00
2023-04-12T04:58:28.025Z,552.00
2023-04-12T04:59:28.073Z,553.00
2023-04-12T05:00:28.123Z,556.00
2023-04-12T05:01:28.644Z,558.00
2023-04-12T05:02:28.383Z,558.00
2023-04-12T05:03:30.362Z,560.00
2023-04-12T05:04:28.343Z,558.00
2023-04-12T05:05:28.255Z,555.00
2023-04-12T05:06:28.254Z,553.00
2023-04-12T05:07:28.254Z,551.00
2023-04-12T05:08:28.239Z,548.00
2023-04-12T05:09:28.233Z,546.00
2023-04-12T05:10:28.229Z,544.00
2023-04-12T05:11:28.236Z,546.00
2023-04-12T05:12:28.249Z,548.00
2023-04-12T05:13:28.226Z,551.00
2023-04-12T05:14:41.346Z,551.00
2023-04-12T05:15:28.190Z,553.00
2023-04-12T05:16:28.196Z,553.00
2023-04-12T05:17:28.302Z,554.00
2023-04-12T05:18:28.181Z,557.00
2023-04-12T05:19:28.163Z,556.00
2023-04-12T05:20:28.172Z,557.00
2023-04-12T05:21:28.161Z,559.00
2023-04-12T05:22:28.132Z,569.00
2023-04-12T05:23:28.128Z,573.00
2023-04-12T05:24:28.123Z,576.00
2023-04-12T05:25:28.110Z,579.00
2023-04-12T05:26:28.125Z,576.00
2023-04-12T05:27:28.102Z,576.00
2023-04-12T05:28:28.098Z,578.00
2023-04-12T05:29:28.090Z,580.00
2023-04-12T05:30:28.079Z,581.00
2023-04-12T05:31:28.095Z,582.00
2023-04-12T05:32:28.105Z,579.00
2023-04-12T05:33:28.097Z,579.00
2023-04-12T05:34:28.069Z,582.00
2023-04-12T05:35:28.081Z,586.00
2023-04-12T05:36:28.074Z,586.00
2023-04-12T05:37:28.554Z,593.00
2023-04-12T05:38:28.043Z,595.00
2023-04-12T05:39:28.049Z,596.00
2023-04-12T05:40:28.056Z,596.00
2023-04-12T05:41:29.003Z,597.00
2023-04-12T05:42:28.015Z,599.00
2023-04-12T05:43:28.023Z,601.00
2023-04-12T05:44:28.024Z,603.00
2023-04-12T05:45:27.995Z,606.00
2023-04-12T05:46:28.036Z,607.00
2023-04-12T05:47:28.114Z,605.00
2023-04-12T05:48:28.033Z,614.00
2023-04-12T05:49:28.594Z,627.00
2023-04-12T05:50:28.043Z,632.00
2023-04-12T05:51:39.898Z,635.00
2023-04-12T05:52:28.531Z,638.00
2023-04-12T05:53:28.218Z,635.00
2023-04-12T05:54:28.115Z,641.00
2023-04-12T05:55:28.025Z,657.00
2023-04-12T05:56:28.018Z,688.00
2023-04-12T05:57:28.051Z,706.00
2023-04-12T05:58:28.040Z,716.00
2023-04-12T05:59:28.031Z,737.00
2023-04-12T06:00:27.996Z,790.00
2023-04-12T06:01:28.799Z,821.00
2023-04-12T06:03:28.134Z,846.00
2023-04-12T06:04:42.150Z,856.00
2023-04-12T06:05:28.062Z,874.00
2023-04-12T06:06:27.954Z,895.00
2023-04-12T06:07:27.946Z,918.00
2023-04-12T06:08:28.052Z,951.00
2023-04-12T06:09:27.938Z,972.00
2023-04-12T06:10:27.957Z,981.00
2023-04-12T06:11:27.925Z,996.00
2023-04-12T06:12:27.925Z,1011.00
2023-04-12T06:13:27.919Z,1022.00
2023-04-12T06:14:27.904Z,1036.00
2023-04-12T06:15:27.902Z,1055.00
2023-04-12T06:16:27.911Z,1071.00
2023-04-12T06:17:28.248Z,1087.00
2023-04-12T06:18:28.079Z,1099.00
2023-04-12T06:19:27.885Z,1110.00
2023-04-12T06:20:27.874Z,1124.00
2023-04-12T06:21:28.077Z,1144.00
2023-04-12T06:22:27.877Z,1176.00
2023-04-12T06:23:28.048Z,1178.00
2023-04-12T06:24:27.852Z,1197.00
2023-04-12T06:25:27.853Z,1221.00
2023-04-12T06:26:37.305Z,1235.00
2023-04-12T06:27:27.828Z,1240.00
2023-04-12T06:28:28.069Z,1249.00
2023-04-12T06:29:27.818Z,1265.00
2023-04-12T06:30:27.796Z,1288.00
2023-04-12T06:31:27.844Z,1303.00
2023-04-12T06:32:28.085Z,1321.00
2023-04-12T06:33:28.048Z,1337.00
2023-04-12T06:34:27.773Z,1343.00
2023-04-12T06:35:27.770Z,1358.00
2023-04-12T06:36:27.744Z,1369.00
2023-04-12T06:37:28.325Z,1413.00
2023-04-12T06:38:27.732Z,1415.00
2023-04-12T06:39:28.051Z,1419.00
2023-04-12T06:40:27.729Z,1425.00
2023-04-12T06:41:27.719Z,1442.00
2023-04-12T06:42:27.722Z,1461.00
2023-04-12T06:43:28.045Z,1476.00
2023-04-12T06:44:27.714Z,1483.00
2023-04-12T06:45:27.707Z,1494.00
2023-04-12T06:46:27.912Z,1560.00
2023-04-12T06:47:28.085Z,1577.00
2023-04-12T06:48:28.047Z,1570.00
2023-04-12T06:49:27.660Z,1559.00
2023-04-12T06:50:27.652Z,1554.00
2023-04-12T06:51:27.652Z,1548.00
2023-04-12T06:52:27.638Z,1542.00
2023-04-12T06:53:28.080Z,1529.00
2023-04-12T06:54:27.652Z,1510.00
2023-04-12T06:55:27.619Z,1503.00
2023-04-12T06:56:27.610Z,1490.00
2023-04-12T06:57:27.607Z,1484.00
2023-04-12T06:58:28.050Z,1480.00
2023-04-12T06:59:27.591Z,1478.00
2023-04-12T07:00:27.584Z,1471.00
2023-04-12T07:01:27.632Z,1469.00
2023-04-12T07:02:27.628Z,1468.00
2023-04-12T07:03:28.132Z,1467.00
2023-04-12T07:04:27.569Z,1464.00
2023-04-12T07:05:27.563Z,1461.00
2023-04-12T07:06:27.549Z,1458.00
2023-04-12T07:07:27.544Z,1458.00
2023-04-12T07:08:29.696Z,1455.00
2023-04-12T07:09:27.714Z,1452.00
2023-04-12T07:10:27.525Z,1444.00
2023-04-12T07:11:27.542Z,1441.00
2023-04-12T07:12:27.507Z,1440.00
2023-04-12T07:13:27.562Z,1441.00
2023-04-12T07:14:27.718Z,1436.00
2023-04-12T07:15:27.498Z,1436.00
2023-04-12T07:16:27.594Z,1438.00
2023-04-12T07:17:27.621Z,1437.00
2023-04-12T07:18:27.478Z,1436.00
2023-04-12T07:19:27.494Z,1435.00
2023-04-12T07:20:27.595Z,1432.00
2023-04-12T07:21:27.570Z,1427.00
2023-04-12T07:22:27.469Z,1424.00
2023-04-12T07:23:27.473Z,1426.00
2023-04-12T07:24:27.606Z,1425.00
2023-04-12T07:25:27.496Z,1421.00
2023-04-12T07:26:27.491Z,1416.00
2023-04-12T07:27:27.460Z,1419.00
2023-04-12T07:28:27.436Z,1418.00
2023-04-12T07:29:27.588Z,1410.00
2023-04-12T07:30:27.467Z,1406.00
2023-04-12T07:31:27.426Z,1400.00
2023-04-12T07:32:27.686Z,1400.00
2023-04-12T07:33:27.552Z,1395.00
2023-04-12T07:34:27.731Z,1397.00
2023-04-12T07:35:27.398Z,1394.00
2023-04-12T07:36:27.406Z,1394.00
2023-04-12T07:37:27.604Z,1394.00
2023-04-12T07:38:27.377Z,1408.00
2023-04-12T07:39:27.652Z,1485.00
2023-04-12T07:40:27.359Z,1495.00
2023-04-12T07:41:28.496Z,1505.00
2023-04-12T07:42:28.599Z,1522.00
2023-04-12T07:43:27.622Z,1537.00
2023-04-12T07:44:27.327Z,1553.00
2023-04-12T07:45:27.607Z,1557.00
2023-04-12T07:46:27.306Z,1572.00
2023-04-12T07:47:27.610Z,1620.00
2023-04-12T07:48:27.269Z,1649.00
2023-04-12T07:49:27.622Z,1665.00
2023-04-12T07:50:27.287Z,1678.00
2023-04-12T07:51:27.275Z,1684.00
2023-04-12T07:52:27.272Z,1683.00
2023-04-12T07:53:27.728Z,1671.00
2023-04-12T07:54:27.620Z,1655.00
2023-04-12T07:55:27.303Z,1631.00
2023-04-12T07:56:27.270Z,1616.00
2023-04-12T07:57:27.859Z,1606.00
2023-04-12T07:58:27.281Z,1599.00
2023-04-12T07:59:27.337Z,1575.00
2023-04-12T08:00:27.969Z,1574.00
2023-04-12T08:01:27.319Z,1573.00
2023-04-12T08:02:27.831Z,1571.00
2023-04-12T08:03:27.512Z,1569.00
2023-04-12T08:04:27.656Z,1571.00
2023-04-12T08:05:27.657Z,1570.00
2023-04-12T08:06:30.580Z,1567.00
2023-04-12T08:07:27.413Z,1561.00
2023-04-12T08:08:27.405Z,1560.00
2023-04-12T08:09:27.601Z,1558.00
2023-04-12T08:10:27.401Z,1555.00
2023-04-12T08:11:27.410Z,1552.00
2023-04-12T08:12:27.661Z,1550.00
2023-04-12T08:13:27.486Z,1548.00
2023-04-12T08:14:27.622Z,1549.00
2023-04-12T08:15:27.703Z,1550.00
2023-04-12T08:16:27.766Z,1549.00
2023-04-12T08:17:27.621Z,1548.00
2023-04-12T08:18:27.613Z,1546.00
2023-04-12T08:19:27.615Z,1545.00
2023-04-12T08:20:29.101Z,1541.00
2023-04-12T08:21:27.656Z,1535.00
2023-04-12T08:22:27.644Z,1528.00
2023-04-12T08:23:27.638Z,1526.00
2023-04-12T08:24:27.664Z,1528.00
2023-04-12T08:25:27.671Z,1526.00
2023-04-12T08:26:27.746Z,1528.00
2023-04-12T08:27:28.123Z,1522.00
2023-04-12T08:28:27.797Z,1518.00
2023-04-12T08:29:27.859Z,1517.00
2023-04-12T08:30:27.900Z,1513.00
2023-04-12T08:31:27.961Z,1512.00
2023-04-12T08:32:27.981Z,1509.00
2023-04-12T08:33:27.952Z,1511.00
2023-04-12T08:34:28.132Z,1510.00
2023-04-12T08:35:27.982Z,1506.00
2023-04-12T08:36:27.999Z,1501.00
2023-04-12T08:37:28.116Z,1500.00
2023-04-12T08:38:42.038Z,1498.00
2023-04-12T08:39:28.134Z,1497.00
2023-04-12T08:40:28.051Z,1493.00
2023-04-12T08:41:28.056Z,1491.00
2023-04-12T08:42:28.134Z,1489.00
2023-04-12T08:43:28.029Z,1489.00
2023-04-12T08:44:27.022Z,1484.00
2023-04-12T08:45:29.206Z,1478.00
2023-04-12T08:46:28.027Z,1472.00
2023-04-12T08:47:28.137Z,1472.00
2023-04-12T08:48:28.057Z,1475.00
2023-04-12T08:49:28.110Z,1474.00
2023-04-12T08:50:28.108Z,1472.00
2023-04-12T08:51:27.962Z,1469.00
2023-04-12T08:52:28.104Z,1459.00
2023-04-12T08:53:27.949Z,1452.00
2023-04-12T08:54:27.982Z,1448.00
2023-04-12T08:55:28.049Z,1442.00
2023-04-12T08:56:28.062Z,1440.00
2023-04-12T08:57:30.077Z,1439.00
2023-04-12T08:58:28.608Z,1436.00
2023-04-12T08:59:28.096Z,1437.00
2023-04-12T09:00:28.107Z,1439.00
2023-04-12T09:01:28.381Z,1441.00
2023-04-12T09:02:28.233Z,1437.00
2023-04-12T09:03:29.873Z,1435.00
2023-04-12T09:04:28.117Z,1436.00
2023-04-12T09:05:28.189Z,1430.00
2023-04-12T09:06:28.060Z,1425.00
2023-04-12T09:07:28.111Z,1422.00
2023-04-12T09:08:28.116Z,1422.00
2023-04-12T09:09:28.035Z,1418.00
2023-04-12T09:10:28.030Z,1415.00
2023-04-12T09:11:28.084Z,1411.00
2023-04-12T09:12:28.029Z,1413.00
2023-04-12T09:13:28.116Z,1406.00
2023-04-12T09:14:28.021Z,1405.00
2023-04-12T09:15:28.112Z,1401.00
2023-04-12T09:16:28.031Z,1400.00
2023-04-12T09:17:28.033Z,1400.00
2023-04-12T09:18:27.980Z,1399.00
2023-04-12T09:19:28.112Z,1394.00
2023-04-12T09:20:27.964Z,1392.00
2023-04-12T09:21:27.954Z,1386.00
2023-04-12T09:22:27.968Z,1383.00
2023-04-12T09:23:28.120Z,1387.00
2023-04-12T09:24:28.142Z,1389.00
2023-04-12T09:25:28.185Z,807.00
2023-04-12T09:26:27.967Z,838.00
2023-04-12T09:27:27.921Z,828.00
2023-04-12T09:28:27.928Z,850.00
2023-04-12T09:29:43.732Z,858.00
2023-04-12T09:30:27.898Z,853.00
2023-04-12T09:31:27.953Z,852.00
2023-04-12T09:32:27.941Z,841.00
2023-04-12T09:33:28.258Z,840.00
2023-04-12T09:34:28.160Z,840.00
2023-04-12T09:35:27.876Z,837.00
2023-04-12T09:36:27.925Z,835.00
2023-04-12T09:37:27.855Z,841.00
2023-04-12T09:38:28.166Z,863.00
2023-04-12T09:39:27.864Z,903.00
2023-04-12T09:40:27.833Z,914.00
2023-04-12T09:41:27.808Z,921.00
2023-04-12T09:42:34.161Z,924.00
2023-04-12T09:43:28.149Z,932.00
2023-04-12T09:44:28.140Z,939.00
2023-04-12T09:45:29.152Z,949.00
2023-04-12T09:46:27.899Z,953.00
2023-04-12T09:47:27.879Z,954.00
2023-04-12T09:48:27.850Z,949.00
2023-04-12T09:49:27.938Z,947.00
2023-04-12T09:50:28.133Z,940.00
2023-04-12T09:51:28.342Z,934.00
2023-04-12T09:52:28.412Z,941.00
2023-04-12T09:53:28.111Z,953.00
2023-04-12T09:54:28.141Z,974.00
2023-04-12T09:55:28.644Z,982.00
2023-04-12T09:56:28.220Z,993.00
2023-04-12T09:57:28.267Z,1006.00
2023-04-12T09:58:29.916Z,1026.00
2023-04-12T09:59:28.634Z,1055.00
2023-04-12T10:00:28.261Z,1072.00
2023-04-12T10:01:28.709Z,1089.00
2023-04-12T10:02:31.696Z,1106.00
2023-04-12T10:03:28.804Z,1119.00
2023-04-12T10:04:28.493Z,1130.00
2023-04-12T10:05:29.667Z,1147.00
2023-04-12T10:06:28.386Z,1159.00
2023-04-12T10:07:28.435Z,1194.00
2023-04-12T10:08:28.437Z,1211.00
2023-04-12T10:09:28.637Z,1219.00
2023-04-12T10:10:28.565Z,1230.00
2023-04-12T10:11:28.596Z,1269.00
2023-04-12T10:12:28.628Z,1276.00
2023-04-12T10:13:28.647Z,1289.00
2023-04-12T10:14:28.661Z,1302.00
2023-04-12T10:15:28.686Z,1317.00
2023-04-12T10:16:28.775Z,1344.00
2023-04-12T10:17:28.790Z,1353.00
2023-04-12T10:18:29.156Z,1363.00
2023-04-12T10:19:28.843Z,1378.00
2023-04-12T10:20:29.707Z,1392.00
2023-04-12T10:21:29.010Z,1413.00
2023-04-12T10:22:29.028Z,1432.00
2023-04-12T10:23:29.192Z,1462.00
2023-04-12T10:24:29.642Z,1464.00
2023-04-12T10:25:29.723Z,1481.00
2023-04-12T10:26:29.330Z,1496.00
2023-04-12T10:27:32.565Z,1500.00
2023-04-12T10:28:29.337Z,1505.00
2023-04-12T10:29:29.652Z,1507.00
2023-04-12T10:30:29.416Z,1513.00
2023-04-12T10:31:29.788Z,1521.00
2023-04-12T10:32:29.377Z,1530.00
2023-04-12T10:33:29.714Z,1533.00
2023-04-12T10:34:29.346Z,1537.00
2023-04-12T10:35:29.402Z,1538.00
2023-04-12T10:36:29.614Z,1528.00
2023-04-12T10:37:29.395Z,1512.00
2023-04-12T10:38:29.311Z,1498.00
2023-04-12T10:39:29.300Z,1489.00
2023-04-12T10:40:29.297Z,1470.00
2023-04-12T10:41:29.307Z,1457.00
2023-04-12T10:42:29.267Z,1445.00
2023-04-12T10:43:29.263Z,1421.00
2023-04-12T10:44:30.266Z,1404.00
2023-04-12T10:45:29.300Z,1380.00
2023-04-12T10:46:29.275Z,1355.00
2023-04-12T10:47:29.509Z,1347.00
2023-04-12T10:48:29.297Z,1335.00
2023-04-12T10:49:29.208Z,1321.00
2023-04-12T10:50:29.647Z,1302.00
2023-04-12T10:51:29.204Z,1285.00
2023-04-12T10:52:29.485Z,1275.00
2023-04-12T10:53:29.222Z,1266.00
2023-04-12T10:54:29.175Z,1254.00
2023-04-12T10:55:29.194Z,1242.00
2023-04-12T10:56:30.175Z,1234.00
2023-04-12T10:57:29.168Z,1216.00
2023-04-12T10:58:29.186Z,1203.00
2023-04-12T10:59:45.059Z,1150.00
2023-04-12T11:00:29.154Z,1135.00
2023-04-12T11:01:29.224Z,1131.00
2023-04-12T11:02:29.263Z,1131.00
2023-04-12T11:03:29.211Z,1126.00
2023-04-12T11:04:29.200Z,1129.00
2023-04-12T11:05:29.171Z,1131.00
2023-04-12T11:06:29.151Z,1135.00
2023-04-12T11:07:29.392Z,1138.00
2023-04-12T11:08:29.081Z,1146.00
2023-04-12T11:09:29.094Z,1150.00
2023-04-12T11:10:29.070Z,1148.00
2023-04-12T11:11:29.066Z,1141.00
2023-04-12T11:12:29.771Z,1142.00
2023-04-12T11:13:29.078Z,1145.00
2023-04-12T11:14:29.052Z,1151.00
2023-04-12T11:15:29.494Z,1152.00
2023-04-12T11:16:29.197Z,1148.00
2023-04-12T11:17:29.053Z,1140.00
2023-04-12T11:18:29.073Z,1132.00
2023-04-12T11:19:29.012Z,1119.00
2023-04-12T11:20:29.003Z,1119.00
2023-04-12T11:21:28.996Z,1118.00
2023-04-12T11:22:29.062Z,1108.00
2023-04-12T11:23:29.182Z,1075.00
2023-04-12T11:24:28.990Z,1058.00
2023-04-12T11:25:29.019Z,1052.00
2023-04-12T11:26:28.968Z,1048.00
2023-04-12T11:27:28.974Z,1044.00
2023-04-12T11:28:31.083Z,993.00
2023-04-12T11:29:28.944Z,955.00
2023-04-12T11:30:28.959Z,939.00
2023-04-12T11:31:29.000Z,937.00
2023-04-12T11:32:28.954Z,924.00
2023-04-12T11:33:28.921Z,901.00
2023-04-12T11:34:28.918Z,896.00
2023-04-12T11:35:28.911Z,899.00
2023-04-12T11:36:29.256Z,901.00
2023-04-12T11:37:28.895Z,894.00
2023-04-12T11:38:28.897Z,882.00
2023-04-12T11:39:30.484Z,882.00
2023-04-12T11:40:28.882Z,888.00
2023-04-12T11:41:29.196Z,887.00
2023-04-12T11:42:28.879Z,893.00
2023-04-12T11:43:29.663Z,896.00
2023-04-12T11:44:29.913Z,896.00
2023-04-12T11:45:28.847Z,894.00
2023-04-12T11:46:29.255Z,890.00
2023-04-12T11:47:28.867Z,882.00
2023-04-12T11:48:29.172Z,866.00
2023-04-12T11:49:28.847Z,849.00
2023-04-12T11:50:28.813Z,822.00
2023-04-12T11:51:31.586Z,817.00
2023-04-12T11:52:28.803Z,808.00
2023-04-12T11:53:28.814Z,805.00
2023-04-12T11:54:29.192Z,802.00
2023-04-12T11:55:28.787Z,799.00
2023-04-12T11:56:29.178Z,799.00
2023-04-12T11:57:28.820Z,803.00
2023-04-12T11:58:28.778Z,808.00
2023-04-12T11:59:28.760Z,811.00
2023-04-12T12:00:29.194Z,817.00
2023-04-12T12:01:28.741Z,827.00
2023-04-12T12:02:33.081Z,825.00
2023-04-12T12:03:28.977Z,830.00
2023-04-12T12:04:28.958Z,833.00
2023-04-12T12:05:29.278Z,790.00
2023-04-12T12:06:29.441Z,784.00
2023-04-12T12:07:29.767Z,773.00
2023-04-12T12:08:28.696Z,830.00
2023-04-12T12:09:29.183Z,845.00
2023-04-12T12:10:43.725Z,856.00
2023-04-12T12:11:28.875Z,867.00
2023-04-12T12:12:28.955Z,875.00
2023-04-12T12:13:28.705Z,885.00
2023-04-12T12:14:28.677Z,898.00
2023-04-12T12:15:28.676Z,913.00
2023-04-12T12:16:28.885Z,923.00
2023-04-12T12:17:28.699Z,956.00
2023-04-12T12:18:28.634Z,1010.00
2023-04-12T12:19:28.629Z,1041.00
2023-04-12T12:20:28.616Z,1052.00